Time,TemperatureF,DewpointF,PressureIn,WindDirection,WindDirectionDegrees,WindSpeedMPH,WindSpeedGustMPH,Humidity,HourlyPrecipIn,Conditions,Clouds,dailyrainin,SoftwareType,DateUTC
2013-02-26 00:00:00,18.5,13.9,30.04,ENE,68,0.0,0.0,82,0.00,,,0.00,WUHU216HW,2013-02-26 06:00:00,
2013-02-26 00:05:00,18.5,13.9,30.04,ENE,68,0.2,0.6,82,0.00,,,0.00,WUHU216HW,2013-02-26 06:05:00,
2013-02-26 00:10:00,18.2,13.2,30.04,ENE,68,0.0,0.6,81,0.00,,,0.00,WUHU216HW,2013-02-26 06:10:00,
2013-02-26 00:15:00,18.0,13.1,30.04,ENE,68,0.0,0.3,81,0.00,,,0.00,WUHU216HW,2013-02-26 06:15:00,
2013-02-26 00:21:00,18.0,13.1,30.05,ENE,68,0.0,0.0,81,0.00,,,0.00,WUHU216HW,2013-02-26 06:21:00,
2013-02-26 00:25:00,17.6,12.7,30.04,ENE,68,0.0,0.0,81,0.00,,,0.00,WUHU216HW,2013-02-26 06:25:00,
2013-02-26 00:30:00,17.6,12.7,30.05,ENE,68,0.0,0.0,81,0.00,,,0.00,WUHU216HW,2013-02-26 06:30:00,
2013-02-26 00:35:00,17.6,12.7,30.04,ENE,68,0.4,0.6,81,0.00,,,0.00,WUHU216HW,2013-02-26 06:35:00,
2013-02-26 00:40:00,17.3,12.3,30.04,ENE,68,0.0,0.6,81,0.00,,,0.00,WUHU216HW,2013-02-26 06:40:00,
2013-02-26 00:45:00,17.3,12.3,30.05,North,0,0.0,0.6,81,0.00,,,0.00,WUHU216HW,2013-02-26 06:45:00,
2013-02-26 00:50:00,17.3,12.3,30.04,North,0,0.0,0.0,81,0.00,,,0.00,WUHU216HW,2013-02-26 06:50:00,
2013-02-26 00:55:00,17.1,12.3,30.04,NE,45,0.0,0.0,81,0.00,,,0.00,WUHU216HW,2013-02-26 06:55:00,
2013-02-26 01:00:00,16.9,12.1,30.04,ENE,68,0.3,0.6,81,0.00,,,0.00,WUHU216HW,2013-02-26 07:00:00,
2013-02-26 01:05:00,16.9,12.1,30.04,SE,135,0.0,0.6,81,0.00,,,0.00,WUHU216HW,2013-02-26 07:05:00,
2013-02-26 01:10:00,16.7,11.9,30.04,ENE,68,0.2,0.3,81,0.00,,,0.00,WUHU216HW,2013-02-26 07:10:00,
2013-02-26 01:15:00,16.6,11.7,30.04,ENE,68,0.0,0.3,81,0.00,,,0.00,WUHU216HW,2013-02-26 07:15:00,
2013-02-26 01:20:00,16.6,11.7,30.04,NNE,23,0.0,0.3,81,0.00,,,0.00,WUHU216HW,2013-02-26 07:20:00,
2013-02-26 01:25:00,16.4,11.5,30.04,NNE,23,0.0,0.0,81,0.00,,,0.00,WUHU216HW,2013-02-26 07:25:00,
2013-02-26 01:30:00,16.2,11.3,30.04,NNE,23,0.0,0.0,81,0.00,,,0.00,WUHU216HW,2013-02-26 07:30:00,
2013-02-26 01:35:00,16.2,11.6,30.04,NNE,23,0.0,0.0,82,0.00,,,0.00,WUHU216HW,2013-02-26 07:35:00,
2013-02-26 01:40:00,15.8,11.4,30.04,ENE,68,0.0,0.3,82,0.00,,,0.00,WUHU216HW,2013-02-26 07:40:00,
2013-02-26 01:45:00,15.8,11.4,30.04,ENE,68,0.0,0.3,82,0.00,,,0.00,WUHU216HW,2013-02-26 07:45:00,
2013-02-26 01:50:00,15.7,11.2,30.03,ENE,68,0.0,0.0,82,0.00,,,0.00,WUHU216HW,2013-02-26 07:50:00,
2013-02-26 01:55:00,15.7,11.2,30.04,North,0,0.0,0.0,82,0.00,,,0.00,WUHU216HW,2013-02-26 07:55:00,
2013-02-26 02:00:00,15.7,11.3,30.03,ENE,68,0.4,0.6,83,0.00,,,0.00,WUHU216HW,2013-02-26 08:00:00,
2013-02-26 02:05:00,15.5,11.3,30.02,NE,45,0.7,1.7,83,0.00,,,0.00,WUHU216HW,2013-02-26 08:05:00,
2013-02-26 02:10:00,15.5,11.3,30.03,West,267,0.4,1.7,83,0.00,,,0.00,WUHU216HW,2013-02-26 08:10:00,
2013-02-26 02:15:00,14.9,10.7,30.02,NW,315,0.0,0.6,83,0.00,,,0.00,WUHU216HW,2013-02-26 08:15:00,
2013-02-26 02:20:00,14.8,10.5,30.02,SE,135,0.0,0.6,83,0.00,,,0.00,WUHU216HW,2013-02-26 08:20:00,
2013-02-26 02:25:00,14.8,10.5,30.02,NE,45,0.0,0.0,83,0.00,,,0.00,WUHU216HW,2013-02-26 08:25:00,
2013-02-26 02:30:00,14.8,10.5,30.01,ENE,68,0.4,0.6,83,0.00,,,0.00,WUHU216HW,2013-02-26 08:30:00,
2013-02-26 02:35:00,14.8,10.5,30.01,ENE,68,0.2,1.1,83,0.00,,,0.00,WUHU216HW,2013-02-26 08:35:00,
2013-02-26 02:40:00,14.8,10.5,30.02,WSW,248,0.0,1.1,83,0.00,,,0.00,WUHU216HW,2013-02-26 08:40:00,
2013-02-26 02:45:00,14.8,10.5,30.02,WSW,248,0.0,0.0,83,0.00,,,0.00,WUHU216HW,2013-02-26 08:45:00,
2013-02-26 02:50:00,14.8,10.5,30.02,NNE,23,0.2,0.3,83,0.00,,,0.00,WUHU216HW,2013-02-26 08:50:00,
2013-02-26 02:55:00,14.8,10.5,30.02,NNE,23,0.0,0.3,83,0.00,,,0.00,WUHU216HW,2013-02-26 08:55:00,
2013-02-26 03:00:00,14.8,10.8,30.02,NNE,23,0.0,0.3,84,0.00,,,0.00,WUHU216HW,2013-02-26 09:00:00,
2013-02-26 03:05:00,14.8,10.8,30.02,NNE,23,0.0,0.0,84,0.00,,,0.00,WUHU216HW,2013-02-26 09:05:00,
2013-02-26 03:10:00,14.8,10.8,30.01,NNE,23,0.0,0.0,84,0.00,,,0.00,WUHU216HW,2013-02-26 09:10:00,
2013-02-26 03:15:00,14.6,10.6,30.01,NE,38,0.2,0.6,84,0.00,,,0.00,WUHU216HW,2013-02-26 09:15:00,
2013-02-26 03:20:00,14.6,10.6,30.01,NNE,23,0.2,0.6,84,0.00,,,0.00,WUHU216HW,2013-02-26 09:20:00,
2013-02-26 03:25:00,14.6,10.6,30.01,NE,45,0.0,0.6,84,0.00,,,0.00,WUHU216HW,2013-02-26 09:25:00,
2013-02-26 03:30:00,14.4,10.5,30.01,ENE,68,0.3,0.6,84,0.00,,,0.00,WUHU216HW,2013-02-26 09:30:00,
2013-02-26 03:35:00,14.4,10.5,30.01,ENE,68,0.0,0.6,84,0.00,,,0.00,WUHU216HW,2013-02-26 09:35:00,
2013-02-26 03:40:00,14.4,10.5,30.01,NNE,23,0.4,0.6,84,0.00,,,0.00,WUHU216HW,2013-02-26 09:40:00,
2013-02-26 03:45:00,14.2,10.3,30.01,NNE,23,0.0,1.1,84,0.00,,,0.00,WUHU216HW,2013-02-26 09:45:00,
2013-02-26 03:50:00,14.2,10.3,30.01,NE,43,0.6,1.4,84,0.00,,,0.00,WUHU216HW,2013-02-26 09:50:00,
2013-02-26 03:55:00,14.2,10.3,30.01,SE,135,0.0,1.4,84,0.00,,,0.00,WUHU216HW,2013-02-26 09:55:00,
2013-02-26 04:00:00,14.2,10.3,30.01,NNE,23,0.4,1.1,84,0.00,,,0.00,WUHU216HW,2013-02-26 10:00:00,
2013-02-26 04:05:00,14.2,10.3,30.01,NNE,23,0.0,0.6,84,0.00,,,0.00,WUHU216HW,2013-02-26 10:05:00,
2013-02-26 04:10:00,14.0,10.1,30.01,NNE,23,0.4,0.6,84,0.00,,,0.00,WUHU216HW,2013-02-26 10:10:00,
2013-02-26 04:15:00,14.0,10.1,30.00,North,0,0.0,0.6,84,0.00,,,0.00,WUHU216HW,2013-02-26 10:15:00,
2013-02-26 04:20:00,14.0,10.1,30.00,NNE,23,0.0,1.1,84,0.00,,,0.00,WUHU216HW,2013-02-26 10:20:00,
2013-02-26 04:25:00,14.0,10.1,30.00,NNE,23,0.9,2.1,84,0.00,,,0.00,WUHU216HW,2013-02-26 10:25:00,
2013-02-26 04:30:00,14.4,10.5,30.00,North,0,0.4,2.1,84,0.00,,,0.00,WUHU216HW,2013-02-26 10:30:00,
2013-02-26 04:35:00,14.6,10.6,29.99,NNE,23,1.8,2.5,84,0.00,,,0.00,WUHU216HW,2013-02-26 10:35:00,
2013-02-26 04:40:00,15.1,11.6,29.99,NNE,19,0.4,2.5,86,0.00,,,0.00,WUHU216HW,2013-02-26 10:40:00,
2013-02-26 04:45:00,15.5,12.0,30.00,NE,45,1.0,2.5,86,0.00,,,0.00,WUHU216HW,2013-02-26 10:45:00,
2013-02-26 04:50:00,15.8,12.6,29.99,NNE,29,0.4,1.4,87,0.00,,,0.00,WUHU216HW,2013-02-26 10:50:00,
2013-02-26 04:55:00,16.0,12.8,29.99,NNE,23,0.4,1.4,87,0.00,,,0.00,WUHU216HW,2013-02-26 10:55:00,
2013-02-26 05:00:00,16.2,12.9,29.99,NNE,23,0.2,1.1,87,0.00,,,0.00,WUHU216HW,2013-02-26 11:00:00,
2013-02-26 05:05:00,16.2,12.9,29.99,NNE,23,0.4,1.4,87,0.00,,,0.00,WUHU216HW,2013-02-26 11:05:00,
2013-02-26 05:10:00,16.0,12.8,29.99,East,90,0.0,1.4,87,0.00,,,0.00,WUHU216HW,2013-02-26 11:10:00,
2013-02-26 05:15:00,15.8,12.6,29.99,NNE,23,0.4,0.6,87,0.00,,,0.00,WUHU216HW,2013-02-26 11:15:00,
2013-02-26 05:20:00,15.7,12.2,30.00,East,83,0.2,0.6,86,0.00,,,0.00,WUHU216HW,2013-02-26 11:20:00,
2013-02-26 05:25:00,15.7,12.2,29.99,NNE,23,0.5,1.1,86,0.00,,,0.00,WUHU216HW,2013-02-26 11:25:00,
2013-02-26 05:30:00,15.7,12.2,29.99,North,0,0.2,1.7,86,0.00,,,0.00,WUHU216HW,2013-02-26 11:30:00,
2013-02-26 05:35:00,15.7,12.2,29.99,NNE,23,0.0,1.7,86,0.00,,,0.00,WUHU216HW,2013-02-26 11:35:00,
2013-02-26 05:40:00,15.7,12.2,29.99,North,0,0.2,1.1,86,0.00,,,0.00,WUHU216HW,2013-02-26 11:40:00,
2013-02-26 05:45:00,15.7,12.2,29.99,North,0,0.4,1.1,86,0.00,,,0.00,WUHU216HW,2013-02-26 11:45:00,
2013-02-26 05:50:00,15.5,12.0,29.99,North,0,0.5,1.7,86,0.00,,,0.00,WUHU216HW,2013-02-26 11:50:00,
2013-02-26 05:55:00,15.5,12.0,29.99,ENE,68,0.0,1.7,86,0.00,,,0.00,WUHU216HW,2013-02-26 11:55:00,
2013-02-26 06:00:00,15.5,12.0,29.99,NNE,23,0.4,0.6,86,0.00,,,0.00,WUHU216HW,2013-02-26 12:00:00,
2013-02-26 06:05:00,15.5,12.0,29.98,NE,45,0.3,0.6,86,0.00,,,0.00,WUHU216HW,2013-02-26 12:05:00,
2013-02-26 06:10:00,15.1,11.6,29.99,NE,45,0.0,0.6,86,0.00,,,0.00,WUHU216HW,2013-02-26 12:10:00,
2013-02-26 06:15:00,15.1,11.6,29.99,NE,45,0.3,0.6,86,0.00,,,0.00,WUHU216HW,2013-02-26 12:15:00,
2013-02-26 06:20:00,15.1,11.6,29.99,North,0,0.0,0.6,86,0.00,,,0.00,WUHU216HW,2013-02-26 12:20:00,
2013-02-26 06:25:00,15.1,11.3,29.99,North,0,0.0,0.0,85,0.00,,,0.00,WUHU216HW,2013-02-26 12:25:00,
2013-02-26 06:30:00,14.9,11.2,30.00,South,187,0.3,0.6,85,0.00,,,0.00,WUHU216HW,2013-02-26 12:30:00,
2013-02-26 06:35:00,14.8,11.1,29.99,NE,45,0.4,0.6,85,0.00,,,0.00,WUHU216HW,2013-02-26 12:35:00,
2013-02-26 06:40:00,14.8,11.1,29.99,NE,45,0.2,0.6,85,0.00,,,0.00,WUHU216HW,2013-02-26 12:40:00,
2013-02-26 06:45:00,14.8,11.1,29.99,North,0,0.8,1.4,85,0.00,,,0.00,WUHU216HW,2013-02-26 12:45:00,
2013-02-26 06:50:00,14.8,11.4,29.99,North,0,0.2,1.4,86,0.00,,,0.00,WUHU216HW,2013-02-26 12:50:00,
2013-02-26 06:55:00,14.8,11.4,29.99,NE,45,0.0,1.1,86,0.00,,,0.00,WUHU216HW,2013-02-26 12:55:00,
2013-02-26 07:00:00,14.8,11.4,29.99,NE,45,0.2,0.6,86,0.00,,,0.00,WUHU216HW,2013-02-26 13:00:00,
2013-02-26 07:05:00,14.6,11.2,29.99,NNE,23,0.4,0.6,86,0.00,,,0.00,WUHU216HW,2013-02-26 13:05:00,
2013-02-26 07:10:00,14.6,11.2,29.99,North,0,0.3,1.7,86,0.00,,,0.00,WUHU216HW,2013-02-26 13:10:00,
2013-02-26 07:15:00,14.8,11.4,29.99,NNE,23,0.3,1.7,86,0.00,,,0.00,WUHU216HW,2013-02-26 13:15:00,
2013-02-26 07:20:00,14.8,11.4,29.99,NNE,23,0.2,0.6,86,0.00,,,0.00,WUHU216HW,2013-02-26 13:20:00,
2013-02-26 07:25:00,14.8,11.4,29.99,NNE,23,0.2,0.6,86,0.00,,,0.00,WUHU216HW,2013-02-26 13:25:00,
2013-02-26 07:30:00,14.8,11.4,29.98,NNE,23,0.3,0.6,86,0.00,,,0.00,WUHU216HW,2013-02-26 13:30:00,
2013-02-26 07:35:00,14.8,11.4,29.98,ENE,68,0.0,0.6,86,0.00,,,0.00,WUHU216HW,2013-02-26 13:35:00,
2013-02-26 07:40:00,14.9,11.4,29.99,NNE,23,0.3,0.6,86,0.00,,,0.00,WUHU216HW,2013-02-26 13:40:00,
2013-02-26 07:45:00,15.1,11.6,29.99,NNE,23,0.0,0.6,86,0.00,,,0.00,WUHU216HW,2013-02-26 13:45:00,
2013-02-26 07:50:00,15.5,12.0,29.99,NE,45,0.6,1.1,86,0.00,,,0.00,WUHU216HW,2013-02-26 13:50:00,
2013-02-26 07:55:00,15.8,12.3,29.99,NNE,23,0.0,1.1,86,0.00,,,0.00,WUHU216HW,2013-02-26 13:55:00,
2013-02-26 08:00:00,16.2,12.9,29.99,NNE,17,0.5,1.1,87,0.00,,,0.00,WUHU216HW,2013-02-26 14:00:00,
2013-02-26 08:05:00,16.6,13.2,29.99,NE,45,1.2,1.7,87,0.00,,,0.00,WUHU216HW,2013-02-26 14:05:00,
2013-02-26 08:10:00,16.9,13.6,29.99,NNE,23,0.4,1.7,87,0.00,,,0.00,WUHU216HW,2013-02-26 14:10:00,
2013-02-26 08:15:00,17.3,14.0,29.99,NE,45,1.0,1.7,87,0.00,,,0.00,WUHU216HW,2013-02-26 14:15:00,
2013-02-26 08:20:00,17.6,14.6,29.98,NNE,23,0.5,2.5,88,0.00,,,0.00,WUHU216HW,2013-02-26 14:20:00,
2013-02-26 08:25:00,18.0,14.9,29.98,North,0,1.2,2.5,88,0.00,,,0.00,WUHU216HW,2013-02-26 14:25:00,
2013-02-26 08:30:00,18.4,15.6,29.98,NNE,23,0.2,1.7,89,0.00,,,0.00,WUHU216HW,2013-02-26 14:30:00,
2013-02-26 08:35:00,18.7,15.9,29.99,ENE,68,0.4,0.6,89,0.00,,,0.00,WUHU216HW,2013-02-26 14:35:00,
2013-02-26 08:40:00,19.1,16.3,29.99,NE,53,0.5,1.4,89,0.00,,,0.00,WUHU216HW,2013-02-26 14:40:00,
2013-02-26 08:45:00,19.6,16.8,29.99,NNW,338,0.2,1.4,89,0.00,,,0.00,WUHU216HW,2013-02-26 14:45:00,
2013-02-26 08:50:00,19.8,17.0,29.98,North,0,0.4,0.6,89,0.00,,,0.00,WUHU216HW,2013-02-26 14:50:00,
2013-02-26 08:55:00,20.5,17.7,29.99,ENE,61,0.3,1.7,89,0.00,,,0.00,WUHU216HW,2013-02-26 14:55:00,
2013-02-26 09:00:00,21.1,18.5,29.99,NE,46,0.6,2.9,90,0.00,,,0.00,WUHU216HW,2013-02-26 15:00:00,
2013-02-26 09:05:00,21.6,19.1,29.99,NE,41,0.8,2.9,90,0.00,,,0.00,WUHU216HW,2013-02-26 15:05:00,
2013-02-26 09:10:00,22.1,19.4,29.99,North,8,0.9,2.9,89,0.00,,,0.00,WUHU216HW,2013-02-26 15:10:00,
2013-02-26 09:15:00,22.7,19.9,29.99,ENE,64,1.4,4.0,89,0.00,,,0.00,WUHU216HW,2013-02-26 15:15:00,
2013-02-26 09:20:00,23.0,20.3,29.99,NNE,23,0.8,4.0,89,0.00,,,0.00,WUHU216HW,2013-02-26 15:20:00,
2013-02-26 09:25:00,23.4,20.6,29.99,North,0,1.0,2.5,89,0.00,,,0.00,WUHU216HW,2013-02-26 15:25:00,
2013-02-26 09:30:00,23.6,20.5,29.99,NNE,32,0.8,2.1,88,0.00,,,0.00,WUHU216HW,2013-02-26 15:30:00,
2013-02-26 09:35:00,24.1,21.1,29.99,NNE,28,0.7,2.1,88,0.00,,,0.00,WUHU216HW,2013-02-26 15:35:00,
2013-02-26 09:40:00,24.1,21.1,29.99,NNE,23,0.8,2.9,88,0.00,,,0.00,WUHU216HW,2013-02-26 15:40:00,
2013-02-26 09:45:00,24.5,21.4,29.99,ENE,68,0.2,2.9,88,0.00,,,0.00,WUHU216HW,2013-02-26 15:45:00,
2013-02-26 09:50:00,24.8,21.8,29.99,ENE,63,1.0,2.1,88,0.00,,,0.00,WUHU216HW,2013-02-26 15:50:00,
2013-02-26 09:55:00,25.0,22.0,29.99,NE,49,0.8,2.1,88,0.00,,,0.00,WUHU216HW,2013-02-26 15:55:00,
2013-02-26 10:00:00,25.2,21.9,29.99,ENE,72,0.7,2.1,87,0.00,,,0.00,WUHU216HW,2013-02-26 16:00:00,
2013-02-26 10:05:00,25.6,22.2,29.99,NNE,23,0.2,1.4,87,0.00,,,0.00,WUHU216HW,2013-02-26 16:05:00,
2013-02-26 10:10:00,25.7,22.4,29.99,NNE,23,0.2,1.7,87,0.00,,,0.00,WUHU216HW,2013-02-26 16:10:00,
2013-02-26 10:15:00,26.3,23.0,29.99,NNE,15,0.3,1.7,87,0.00,,,0.00,WUHU216HW,2013-02-26 16:15:00,
2013-02-26 10:20:00,26.5,22.8,29.99,NNE,28,0.9,2.5,86,0.00,,,0.00,WUHU216HW,2013-02-26 16:20:00,
2013-02-26 10:25:00,26.8,23.1,29.98,NNE,23,0.9,2.5,86,0.00,,,0.00,WUHU216HW,2013-02-26 16:25:00,
2013-02-26 10:30:00,27.0,23.0,29.99,NNE,14,1.1,2.9,85,0.00,,,0.00,WUHU216HW,2013-02-26 16:30:00,
2013-02-26 10:35:00,27.4,23.4,29.98,NNE,23,1.2,3.5,85,0.00,,,0.00,WUHU216HW,2013-02-26 16:35:00,
2013-02-26 10:40:00,27.4,23.1,29.98,NNE,27,1.0,3.5,84,0.00,,,0.00,WUHU216HW,2013-02-26 16:40:00,
2013-02-26 10:45:00,27.5,23.3,29.98,NNE,29,1.0,2.1,84,0.00,,,0.00,WUHU216HW,2013-02-26 16:45:00,
2013-02-26 10:50:00,27.7,23.2,29.98,NNE,23,1.0,2.1,83,0.00,,,0.00,WUHU216HW,2013-02-26 16:50:00,
2013-02-26 10:55:00,27.9,23.4,29.97,North,8,2.0,4.0,83,0.00,,,0.00,WUHU216HW,2013-02-26 16:55:00,
2013-02-26 11:00:00,28.3,24.0,29.97,NNE,23,2.0,4.0,84,0.00,,,0.00,WUHU216HW,2013-02-26 17:00:00,
2013-02-26 11:05:00,28.4,24.0,29.98,North,0,1.0,2.9,83,0.00,,,0.00,WUHU216HW,2013-02-26 17:05:00,
2013-02-26 11:10:00,28.4,24.0,29.97,NE,45,1.8,2.9,83,0.00,,,0.00,WUHU216HW,2013-02-26 17:10:00,
2013-02-26 11:15:00,28.8,24.3,29.97,NNE,23,1.4,4.6,83,0.00,,,0.00,WUHU216HW,2013-02-26 17:15:00,
2013-02-26 11:20:00,29.2,24.3,29.97,North,0,2.0,4.6,82,0.00,,,0.00,WUHU216HW,2013-02-26 17:20:00,
2013-02-26 11:25:00,29.3,24.5,29.97,NE,45,2.4,3.5,82,0.00,,,0.00,WUHU216HW,2013-02-26 17:25:00,
2013-02-26 11:30:00,29.7,24.6,29.97,NNE,23,2.8,5.7,81,0.00,,,0.00,WUHU216HW,2013-02-26 17:30:00,
2013-02-26 11:35:00,29.9,24.8,29.97,NNE,32,1.6,6.0,81,0.00,,,0.00,WUHU216HW,2013-02-26 17:35:00,
2013-02-26 11:40:00,30.1,24.7,29.97,NNE,23,1.8,6.0,80,0.00,,,0.00,WUHU216HW,2013-02-26 17:40:00,
2013-02-26 11:45:00,30.1,24.3,29.96,North,0,2.0,4.0,79,0.00,,,0.00,WUHU216HW,2013-02-26 17:45:00,
2013-02-26 11:50:00,30.2,24.5,29.96,NE,45,1.4,4.0,79,0.00,,,0.00,WUHU216HW,2013-02-26 17:50:00,
2013-02-26 11:55:00,30.4,24.7,29.96,NNE,12,1.6,4.0,79,0.00,,,0.00,WUHU216HW,2013-02-26 17:55:00,
2013-02-26 12:00:00,30.6,24.8,29.96,North,0,3.0,4.3,79,0.00,,,0.00,WUHU216HW,2013-02-26 18:00:00,
2013-02-26 12:05:00,31.0,25.2,29.96,North,0,2.8,4.6,79,0.00,,,0.00,WUHU216HW,2013-02-26 18:05:00,
2013-02-26 12:10:00,31.3,25.3,29.95,North,8,3.7,7.5,78,0.00,,,0.00,WUHU216HW,2013-02-26 18:10:00,
2013-02-26 12:15:00,31.5,25.5,29.95,NNE,23,3.4,7.5,78,0.00,,,0.00,WUHU216HW,2013-02-26 18:15:00,
2013-02-26 12:20:00,32.0,26.0,29.95,North,0,3.0,5.7,78,0.00,,,0.00,WUHU216HW,2013-02-26 18:20:00,
2013-02-26 12:25:00,32.8,26.6,29.94,North,0,2.8,5.4,78,0.00,,,0.00,WUHU216HW,2013-02-26 18:25:00,
2013-02-26 12:30:00,33.5,27.0,29.94,North,0,2.0,5.4,77,0.00,,,0.00,WUHU216HW,2013-02-26 18:30:00,
2013-02-26 12:35:00,33.7,26.8,29.94,NNE,29,2.7,6.4,76,0.00,,,0.00,WUHU216HW,2013-02-26 18:35:00,
2013-02-26 12:40:00,33.8,27.0,29.94,North,11,1.5,6.4,76,0.00,,,0.00,WUHU216HW,2013-02-26 18:40:00,
2013-02-26 12:45:00,34.2,27.0,29.94,NE,45,2.2,4.9,75,0.00,,,0.00,WUHU216HW,2013-02-26 18:45:00,
2013-02-26 12:50:00,34.6,27.4,29.94,NNE,18,1.5,6.0,75,0.00,,,0.00,WUHU216HW,2013-02-26 18:50:00,
2013-02-26 12:55:00,34.9,27.4,29.94,ENE,60,2.6,6.0,74,0.00,,,0.00,WUHU216HW,2013-02-26 18:55:00,
2013-02-26 13:00:00,35.3,27.7,29.93,East,90,4.7,6.8,74,0.00,,,0.00,WUHU216HW,2013-02-26 19:00:00,
2013-02-26 13:05:00,35.8,28.3,29.94,ENE,68,4.0,8.1,74,0.00,,,0.00,WUHU216HW,2013-02-26 19:05:00,
2013-02-26 13:10:00,36.0,28.2,29.93,NNE,25,1.8,8.1,73,0.00,,,0.00,WUHU216HW,2013-02-26 19:10:00,
2013-02-26 13:15:00,36.0,27.8,29.93,NNE,23,3.4,6.4,72,0.00,,,0.00,WUHU216HW,2013-02-26 19:15:00,
2013-02-26 13:20:00,36.2,28.4,29.93,NE,47,1.9,6.4,73,0.00,,,0.00,WUHU216HW,2013-02-26 19:20:00,
2013-02-26 13:25:00,36.4,28.2,29.93,NE,38,2.9,8.6,72,0.00,,,0.00,WUHU216HW,2013-02-26 19:25:00,
2013-02-26 13:30:00,36.2,27.7,29.93,NNE,23,2.0,8.6,71,0.00,,,0.00,WUHU216HW,2013-02-26 19:30:00,
2013-02-26 13:35:00,36.0,27.8,29.93,NNE,23,2.8,5.7,72,0.00,,,0.00,WUHU216HW,2013-02-26 19:35:00,
2013-02-26 13:40:00,36.0,27.8,29.92,NNE,24,2.1,5.7,72,0.00,,,0.00,WUHU216HW,2013-02-26 19:40:00,
2013-02-26 13:45:00,36.0,27.8,29.92,NNE,23,2.0,5.4,72,0.00,,,0.00,WUHU216HW,2013-02-26 19:45:00,
2013-02-26 13:50:00,35.8,27.4,29.92,North,354,2.2,6.0,71,0.00,,,0.00,WUHU216HW,2013-02-26 19:50:00,
2013-02-26 13:55:00,35.6,27.2,29.92,North,0,2.8,6.0,71,0.00,,,0.00,WUHU216HW,2013-02-26 19:55:00,
2013-02-26 14:00:00,35.6,27.5,29.92,NNE,22,1.5,6.0,72,0.00,,,0.00,WUHU216HW,2013-02-26 20:00:00,
2013-02-26 14:05:00,35.6,27.5,29.91,North,0,2.0,4.9,72,0.00,,,0.00,WUHU216HW,2013-02-26 20:05:00,
2013-02-26 14:10:00,35.6,27.5,29.91,NNE,23,3.0,7.2,72,0.00,,,0.00,WUHU216HW,2013-02-26 20:10:00,
2013-02-26 14:15:00,35.6,27.5,29.91,NNE,17,1.7,7.2,72,0.00,,,0.00,WUHU216HW,2013-02-26 20:15:00,
2013-02-26 14:20:00,35.8,27.6,29.91,North,0,3.0,6.0,72,0.00,,,0.00,WUHU216HW,2013-02-26 20:20:00,
2013-02-26 14:25:00,35.6,27.5,29.90,North,10,3.7,6.0,72,0.00,,,0.00,WUHU216HW,2013-02-26 20:25:00,
2013-02-26 14:30:00,35.6,27.5,29.90,North,0,2.0,6.0,72,0.00,,,0.00,WUHU216HW,2013-02-26 20:30:00,
2013-02-26 14:35:00,35.6,27.5,29.90,North,9,2.3,6.4,72,0.00,,,0.00,WUHU216HW,2013-02-26 20:35:00,
2013-02-26 14:40:00,35.6,27.5,29.90,NNE,22,2.4,7.2,72,0.00,,,0.00,WUHU216HW,2013-02-26 20:40:00,
2013-02-26 14:45:00,35.6,27.5,29.90,East,90,2.8,7.2,72,0.00,,,0.00,WUHU216HW,2013-02-26 20:45:00,
2013-02-26 14:50:00,35.6,27.5,29.90,NNE,23,3.7,6.8,72,0.00,,,0.00,WUHU216HW,2013-02-26 20:50:00,
2013-02-26 14:55:00,35.6,27.2,29.91,NNE,26,3.8,6.8,71,0.00,,,0.00,WUHU216HW,2013-02-26 20:55:00,
2013-02-26 15:00:00,35.3,27.1,29.90,North,0,4.4,6.4,72,0.00,,,0.00,WUHU216HW,2013-02-26 21:00:00,
2013-02-26 15:05:00,35.1,26.9,29.90,North,6,2.0,7.8,72,0.00,,,0.00,WUHU216HW,2013-02-26 21:05:00,
2013-02-26 15:10:00,35.1,26.9,29.90,North,5,3.1,7.8,72,0.00,,,0.00,WUHU216HW,2013-02-26 21:10:00,
2013-02-26 15:15:00,35.1,26.9,29.90,NNE,23,4.4,6.4,72,0.00,,,0.00,WUHU216HW,2013-02-26 21:15:00,
2013-02-26 15:20:00,35.3,27.5,29.90,NE,45,2.4,6.4,73,0.00,,,0.00,WUHU216HW,2013-02-26 21:20:00,
2013-02-26 15:25:00,35.3,27.5,29.89,NNW,338,3.7,7.2,73,0.00,,,0.00,WUHU216HW,2013-02-26 21:25:00,
2013-02-26 15:30:00,35.3,27.1,29.89,North,3,2.7,7.2,72,0.00,,,0.00,WUHU216HW,2013-02-26 21:30:00,
2013-02-26 15:35:00,35.1,27.3,29.89,North,0,3.4,6.0,73,0.00,,,0.00,WUHU216HW,2013-02-26 21:35:00,
2013-02-26 15:40:00,35.3,27.5,29.89,North,352,3.0,6.4,73,0.00,,,0.00,WUHU216HW,2013-02-26 21:40:00,
2013-02-26 15:46:00,35.3,27.1,29.89,NNE,25,2.5,6.4,72,0.00,,,0.00,WUHU216HW,2013-02-26 21:46:00,
2013-02-26 15:51:00,35.6,27.5,29.89,North,8,2.3,8.6,72,0.00,,,0.00,WUHU216HW,2013-02-26 21:51:00,
2013-02-26 15:56:00,35.6,27.5,29.89,North,0,2.0,8.6,72,0.00,,,0.00,WUHU216HW,2013-02-26 21:56:00,
2013-02-26 16:23:00,36.4,27.9,29.88,NNE,23,2.8,4.0,71,0.00,,,0.00,WUHU216HW,2013-02-26 22:23:00,
2013-02-26 16:28:00,36.4,27.9,29.88,NNE,14,1.9,6.4,71,0.00,,,0.00,WUHU216HW,2013-02-26 22:28:00,
2013-02-26 16:33:00,36.2,27.7,29.88,NNE,23,2.0,6.4,71,0.00,,,0.00,WUHU216HW,2013-02-26 22:33:00,
2013-02-26 16:38:00,36.4,27.9,29.88,NNE,23,2.4,4.0,71,0.00,,,0.00,WUHU216HW,2013-02-26 22:38:00,
2013-02-26 16:43:00,36.4,27.9,29.88,North,0,3.7,5.4,71,0.00,,,0.00,WUHU216HW,2013-02-26 22:43:00,
2013-02-26 16:48:00,36.4,27.9,29.88,North,0,2.8,5.4,71,0.00,,,0.00,WUHU216HW,2013-02-26 22:48:00,
2013-02-26 16:53:00,36.4,27.9,29.88,NNW,338,1.4,5.4,71,0.00,,,0.00,WUHU216HW,2013-02-26 22:53:00,
2013-02-26 16:58:00,36.4,27.9,29.88,NNE,23,0.8,4.0,71,0.00,,,0.00,WUHU216HW,2013-02-26 22:58:00,
2013-02-26 17:03:00,36.4,27.9,29.88,NNE,23,3.2,5.4,71,0.00,,,0.00,WUHU216HW,2013-02-26 23:03:00,
2013-02-26 17:08:00,36.2,27.7,29.88,NNE,21,2.0,5.4,71,0.00,,,0.00,WUHU216HW,2013-02-26 23:08:00,
2013-02-26 17:13:00,36.2,27.7,29.88,North,4,2.6,5.7,71,0.00,,,0.00,WUHU216HW,2013-02-26 23:13:00,
2013-02-26 17:18:00,36.2,27.7,29.88,NNE,13,1.8,5.7,71,0.00,,,0.00,WUHU216HW,2013-02-26 23:18:00,
2013-02-26 17:23:00,36.2,27.7,29.88,NNE,12,1.4,5.7,71,0.00,,,0.00,WUHU216HW,2013-02-26 23:23:00,
2013-02-26 17:28:00,36.2,27.7,29.88,North,9,1.5,5.7,71,0.00,,,0.00,WUHU216HW,2013-02-26 23:28:00,
2013-02-26 17:33:00,36.2,27.7,29.88,NNE,23,2.4,4.3,71,0.00,,,0.00,WUHU216HW,2013-02-26 23:33:00,
2013-02-26 17:38:00,36.0,27.6,29.88,North,0,0.5,4.3,71,0.00,,,0.00,WUHU216HW,2013-02-26 23:38:00,
2013-02-26 17:43:00,36.0,27.6,29.88,NNE,23,0.8,3.5,71,0.00,,,0.00,WUHU216HW,2013-02-26 23:43:00,
2013-02-26 17:48:00,35.6,27.2,29.88,NNE,23,1.2,2.5,71,0.00,,,0.00,WUHU216HW,2013-02-26 23:48:00,
2013-02-26 17:53:00,35.6,27.2,29.88,North,5,1.1,2.5,71,0.00,,,0.00,WUHU216HW,2013-02-26 23:53:00,
2013-02-26 17:58:00,35.5,27.0,29.88,NNE,18,0.8,2.5,71,0.00,,,0.00,WUHU216HW,2013-02-26 23:58:00,
2013-02-26 18:03:00,35.3,27.1,29.88,North,2,1.0,2.5,72,0.00,,,0.00,WUHU216HW,2013-02-27 00:03:00,
2013-02-26 18:08:00,35.1,26.9,29.88,North,0,0.4,2.1,72,0.00,,,0.00,WUHU216HW,2013-02-27 00:08:00,
2013-02-26 18:13:00,34.9,26.7,29.88,North,0,0.4,2.5,72,0.00,,,0.00,WUHU216HW,2013-02-27 00:13:00,
2013-02-26 18:18:00,34.9,27.1,29.89,North,9,0.3,2.5,73,0.00,,,0.00,WUHU216HW,2013-02-27 00:18:00,
2013-02-26 18:23:00,34.7,26.9,29.89,NNE,23,0.6,1.7,73,0.00,,,0.00,WUHU216HW,2013-02-27 00:23:00,
2013-02-26 18:28:00,34.6,26.7,29.89,North,0,0.4,1.7,73,0.00,,,0.00,WUHU216HW,2013-02-27 00:28:00,
2013-02-26 18:33:00,34.6,26.7,29.89,North,357,0.5,1.7,73,0.00,,,0.00,WUHU216HW,2013-02-27 00:33:00,
2013-02-26 18:38:00,34.4,26.6,29.89,North,0,1.2,2.5,73,0.00,,,0.00,WUHU216HW,2013-02-27 00:38:00,
2013-02-26 18:43:00,34.4,26.6,29.89,NNE,21,1.4,3.5,73,0.00,,,0.00,WUHU216HW,2013-02-27 00:43:00,
2013-02-26 18:48:00,34.4,26.6,29.89,NNE,23,2.2,4.0,73,0.00,,,0.00,WUHU216HW,2013-02-27 00:48:00,
2013-02-26 18:53:00,34.6,26.7,29.89,North,0,0.9,4.0,73,0.00,,,0.00,WUHU216HW,2013-02-27 00:53:00,
2013-02-26 18:58:00,34.4,26.6,29.89,North,0,2.0,4.0,73,0.00,,,0.00,WUHU216HW,2013-02-27 00:58:00,
2013-02-26 19:03:00,34.4,26.6,29.89,North,0,2.0,4.3,73,0.00,,,0.00,WUHU216HW,2013-02-27 01:03:00,
2013-02-26 19:08:00,34.4,26.6,29.89,North,0,3.7,6.0,73,0.00,,,0.00,WUHU216HW,2013-02-27 01:08:00,
2013-02-26 19:13:00,34.4,26.6,29.89,NNE,32,3.0,8.9,73,0.00,,,0.00,WUHU216HW,2013-02-27 01:13:00,
2013-02-26 19:18:00,34.6,26.7,29.90,NNE,23,4.9,8.9,73,0.00,,,0.00,WUHU216HW,2013-02-27 01:18:00,
2013-02-26 19:23:00,34.6,26.7,29.89,NNE,21,3.8,8.6,73,0.00,,,0.00,WUHU216HW,2013-02-27 01:23:00,
2013-02-26 19:28:00,34.6,26.7,29.89,North,0,2.8,8.6,73,0.00,,,0.00,WUHU216HW,2013-02-27 01:28:00,
2013-02-26 19:33:00,34.4,26.8,29.89,North,0,3.7,6.8,74,0.00,,,0.00,WUHU216HW,2013-02-27 01:33:00,
2013-02-26 19:38:00,34.2,26.6,29.89,NNE,18,2.0,6.8,74,0.00,,,0.00,WUHU216HW,2013-02-27 01:38:00,
2013-02-26 19:43:00,34.2,26.6,29.90,NNE,14,2.0,4.9,74,0.00,,,0.00,WUHU216HW,2013-02-27 01:43:00,
2013-02-26 19:48:00,34.0,26.8,29.90,NNE,17,2.3,8.6,75,0.00,,,0.00,WUHU216HW,2013-02-27 01:48:00,
2013-02-26 19:53:00,33.8,26.6,29.90,NNE,24,3.0,8.6,75,0.00,,,0.00,WUHU216HW,2013-02-27 01:53:00,
2013-02-26 19:58:00,33.7,26.8,29.89,North,0,3.7,6.4,76,0.00,,,0.00,WUHU216HW,2013-02-27 01:58:00,
2013-02-26 20:03:00,33.5,26.6,29.90,North,0,2.4,8.1,76,0.00,,,0.00,WUHU216HW,2013-02-27 02:03:00,
2013-02-26 20:08:00,33.5,26.6,29.89,NNE,21,2.7,8.1,76,0.00,,,0.00,WUHU216HW,2013-02-27 02:08:00,
2013-02-26 20:13:00,33.3,26.5,29.90,North,0,2.4,6.4,76,0.00,,,0.00,WUHU216HW,2013-02-27 02:13:00,
2013-02-26 20:18:00,33.1,26.3,29.90,NNE,15,2.2,5.4,76,0.00,,,0.00,WUHU216HW,2013-02-27 02:18:00,
2013-02-26 20:23:00,32.9,26.5,29.90,NNE,27,2.3,6.0,77,0.00,,,0.00,WUHU216HW,2013-02-27 02:23:00,
2013-02-26 20:28:00,32.9,26.5,29.89,North,0,3.4,6.0,77,0.00,,,0.00,WUHU216HW,2013-02-27 02:28:00,
2013-02-26 20:33:00,32.8,26.3,29.89,NE,45,4.2,6.0,77,0.00,,,0.00,WUHU216HW,2013-02-27 02:33:00,
2013-02-26 20:38:00,32.8,26.3,29.89,North,9,2.2,6.0,77,0.00,,,0.00,WUHU216HW,2013-02-27 02:38:00,
2013-02-26 20:43:00,32.6,26.2,29.89,North,11,2.0,6.0,77,0.00,,,0.00,WUHU216HW,2013-02-27 02:43:00,
2013-02-26 20:48:00,32.4,26.3,29.89,NNE,17,1.8,6.4,78,0.00,,,0.00,WUHU216HW,2013-02-27 02:48:00,
2013-02-26 20:53:00,32.4,26.3,29.89,North,0,3.7,7.8,78,0.00,,,0.00,WUHU216HW,2013-02-27 02:53:00,
2013-02-26 20:58:00,32.2,26.2,29.89,NNE,23,2.8,7.8,78,0.00,,,0.00,WUHU216HW,2013-02-27 02:58:00,
2013-02-26 21:03:00,32.0,26.0,29.88,NNE,27,2.9,8.1,78,0.00,,,0.00,WUHU216HW,2013-02-27 03:03:00,
2013-02-26 21:08:00,32.0,26.0,29.88,North,6,3.3,8.1,78,0.00,,,0.00,WUHU216HW,2013-02-27 03:08:00,
2013-02-26 21:13:00,31.9,25.8,29.88,NNE,23,3.7,8.9,78,0.00,,,0.00,WUHU216HW,2013-02-27 03:13:00,
2013-02-26 21:18:00,31.7,25.7,29.88,North,0,4.7,8.9,78,0.00,,,0.00,WUHU216HW,2013-02-27 03:18:00,
2013-02-26 21:23:00,31.7,25.7,29.88,NNE,23,5.9,8.6,78,0.00,,,0.00,WUHU216HW,2013-02-27 03:23:00,
2013-02-26 21:28:00,31.5,25.5,29.88,NNE,12,3.3,8.6,78,0.00,,,0.00,WUHU216HW,2013-02-27 03:28:00,
2013-02-26 21:33:00,31.3,25.3,29.88,NNE,22,2.7,8.6,78,0.00,,,0.00,WUHU216HW,2013-02-27 03:33:00,
2013-02-26 21:38:00,31.3,25.3,29.88,NNE,18,2.2,6.4,78,0.00,,,0.00,WUHU216HW,2013-02-27 03:38:00,
2013-02-26 21:43:00,31.1,25.1,29.88,NNE,23,5.2,7.5,78,0.00,,,0.00,WUHU216HW,2013-02-27 03:43:00,
2013-02-26 21:48:00,31.0,24.9,29.88,NNE,20,2.7,9.5,78,0.00,,,0.00,WUHU216HW,2013-02-27 03:48:00,
2013-02-26 21:53:00,31.0,24.9,29.88,NNE,25,2.8,9.5,78,0.00,,,0.00,WUHU216HW,2013-02-27 03:53:00,
2013-02-26 21:58:00,30.8,24.8,29.88,NE,45,2.2,6.4,78,0.00,,,0.00,WUHU216HW,2013-02-27 03:58:00,
2013-02-26 22:03:00,30.6,24.8,29.88,NNE,23,4.9,7.2,79,0.00,,,0.00,WUHU216HW,2013-02-27 04:03:00,
2013-02-26 22:08:00,30.6,24.8,29.88,North,3,3.0,7.5,79,0.00,,,0.00,WUHU216HW,2013-02-27 04:08:00,
2013-02-26 22:13:00,30.6,24.8,29.88,NNE,13,2.2,7.5,79,0.00,,,0.00,WUHU216HW,2013-02-27 04:13:00,
2013-02-26 22:18:00,30.6,24.8,29.88,NNE,16,2.5,6.0,79,0.00,,,0.00,WUHU216HW,2013-02-27 04:18:00,
2013-02-26 22:23:00,30.4,24.7,29.88,NNE,23,2.8,6.0,79,0.00,,,0.00,WUHU216HW,2013-02-27 04:23:00,
2013-02-26 22:28:00,30.4,24.7,29.88,NE,42,1.3,7.2,79,0.00,,,0.00,WUHU216HW,2013-02-27 04:28:00,
2013-02-26 22:33:00,30.2,24.5,29.88,NNE,29,0.8,7.2,79,0.00,,,0.00,WUHU216HW,2013-02-27 04:33:00,
2013-02-26 22:38:00,30.2,24.5,29.88,NNE,25,1.2,4.9,79,0.00,,,0.00,WUHU216HW,2013-02-27 04:38:00,
2013-02-26 22:43:00,30.1,24.3,29.88,NNE,27,1.2,4.6,79,0.00,,,0.00,WUHU216HW,2013-02-27 04:43:00,
2013-02-26 22:48:00,30.1,24.3,29.88,NNE,24,2.2,4.6,79,0.00,,,0.00,WUHU216HW,2013-02-27 04:48:00,
2013-02-26 22:53:00,29.9,24.1,29.88,North,0,2.8,4.3,79,0.00,,,0.00,WUHU216HW,2013-02-27 04:53:00,
2013-02-26 22:58:00,29.9,24.1,29.88,NNE,15,1.8,5.4,79,0.00,,,0.00,WUHU216HW,2013-02-27 04:58:00,
2013-02-26 23:00:00,29.9,24.1,29.88,North,0,2.0,5.4,79,0.00,,,0.00,WUHU216HW,2013-02-27 05:00:00,
2013-02-26 23:05:00,29.9,24.1,29.87,NNE,14,2.5,5.4,79,0.00,,,0.00,WUHU216HW,2013-02-27 05:05:00,
2013-02-26 23:10:00,29.7,23.9,29.88,NNE,23,2.8,5.4,79,0.00,,,0.00,WUHU216HW,2013-02-27 05:10:00,
2013-02-26 23:15:00,29.7,23.9,29.88,NNE,20,1.8,4.9,79,0.00,,,0.00,WUHU216HW,2013-02-27 05:15:00,
2013-02-26 23:20:00,29.5,23.8,29.88,North,0,4.0,5.7,79,0.00,,,0.00,WUHU216HW,2013-02-27 05:20:00,
2013-02-26 23:25:00,29.5,23.8,29.88,North,7,2.0,5.7,79,0.00,,,0.00,WUHU216HW,2013-02-27 05:25:00,
2013-02-26 23:30:00,29.3,23.7,29.88,NNE,23,2.2,5.7,79,0.00,,,0.00,WUHU216HW,2013-02-27 05:30:00,
2013-02-26 23:35:00,29.3,23.7,29.87,NNE,23,2.4,6.8,79,0.00,,,0.00,WUHU216HW,2013-02-27 05:35:00,
2013-02-26 23:40:00,29.3,23.7,29.87,North,0,3.0,6.8,79,0.00,,,0.00,WUHU216HW,2013-02-27 05:40:00,
2013-02-26 23:45:00,29.2,23.5,29.87,NNE,23,1.8,4.9,79,0.00,,,0.00,WUHU216HW,2013-02-27 05:45:00,
2013-02-26 23:50:00,29.2,23.5,29.87,NNE,14,2.0,4.0,79,0.00,,,0.00,WUHU216HW,2013-02-27 05:50:00,
2013-02-26 23:55:00,29.2,23.5,29.87,NNE,21,1.7,5.4,79,0.00,,,0.00,WUHU216HW,2013-02-27 05:55:00,